Amorebieta-Etxano, Spain
Current Conditions -  °F | °C
As of 6:30 PM on Monday 22 Dec 2014 (Local Time) from LEBB Reporting Station
Clear Clear  
Wind Chill: 48°   Ceiling: Unl
Heat Index: 48°   Visibility: 6mi
Dew Point: 45°   Wind: 0mph
Humidity: 87%   Direction: NA
Pressure: 30.36"   Gusts: NA
Location:  43.22°N, 2.73°W
Report Text: LEBB 221730Z 00000KT CAVOK 09/07 Q1028 NOSIG
Loading
Personal Weather Stations






























Interactive Weather Map New forecast layout! Learn more

10-Day Weather Forecast

Advertisements
Track Severe Weather on mobile